Gambler — LELC — position and weather

sailwx.info

Track history (hours):
 
Tides and Currents Weather Stations Pressure Air Temp Water Temp Dewpoint Dewpoint Depression Visibility Wind Speed Wind Dir Waves Ship Positions

Gambler

Last reported at 2015-Feb-25 01:05 UTC. Time now 2015-Feb-27 11:44 UTC.
Position N 53°56' W 011°08'.

Length 70 m; draft 6 m.

Type: Fishing. MMSI: 258412000.

Date/timePositionNaut miles runAvg speedWind from/ knotsBaromVisibWave heightAir tempDewpointWater temp
2015-Feb-25 01:05N 53°56' W 011°08'710.2
2015-Feb-25 00:27N 53°60' W 010°59'1310.4
2015-Feb-24 23:11N 54°08' W 010°41'710.3
2015-Feb-24 22:33N 54°12' W 010°32'1310.0
2015-Feb-24 21:14N 54°20' W 010°14'7 9.8
2015-Feb-24 20:33N 54°23' W 010°04'10 9.9
2015-Feb-24 19:33N 54°26' W 009°48'38 9.4
2015-Feb-24 15:33N 54°33' W 008°44'9 9.4
2015-Feb-24 14:33N 54°36' W 008°29'3 2.7
2015-Feb-24 13:33N 54°38' W 008°26'0 0.0
2015-Feb-24 12:33N 54°38' W 008°26'0 0.0
2015-Feb-24 11:33N 54°38' W 008°26'0 0.0
2015-Feb-24 10:33N 54°38' W 008°26'0 0.0
2015-Feb-24 09:33N 54°38' W 008°26'0 0.0
2015-Feb-24 08:33N 54°38' W 008°26'0 0.0
2015-Feb-24 07:33N 54°38' W 008°26'0 0.0
2015-Feb-24 06:33N 54°38' W 008°26'0 0.0
2015-Feb-24 05:33N 54°38' W 008°26'0 0.0
2015-Feb-24 04:33N 54°38' W 008°26'0 0.0
2015-Feb-24 03:33N 54°38' W 008°26'0 0.0
2015-Feb-24 02:33N 54°38' W 008°26'0 0.0
2015-Feb-24 01:33N 54°38' W 008°26'0 0.0
2015-Feb-24 00:33N 54°38' W 008°26'0 0.0
2015-Feb-23 23:33N 54°38' W 008°26'0 0.0
2015-Feb-23 22:33N 54°38' W 008°26'0 0.0
2015-Feb-23 21:33N 54°38' W 008°26'0 0.0
2015-Feb-23 20:33N 54°38' W 008°26'0 0.0
2015-Feb-23 19:33N 54°38' W 008°26'0 0.0
2015-Feb-23 18:33N 54°38' W 008°26'0 0.0
2015-Feb-23 17:33N 54°38' W 008°26'0 0.0
2015-Feb-23 16:33N 54°38' W 008°26'0 0.0
2015-Feb-23 15:33N 54°38' W 008°26'0 0.0
2015-Feb-23 14:33N 54°38' W 008°26'0 0.0
2015-Feb-23 13:33N 54°38' W 008°26'0 0.0
2015-Feb-23 12:33N 54°38' W 008°26'0 0.0
2015-Feb-23 11:33N 54°38' W 008°26'0 0.0
2015-Feb-23 10:33N 54°38' W 008°26'0 0.0
2015-Feb-23 09:33N 54°38' W 008°26'0 0.0
2015-Feb-23 08:33N 54°38' W 008°26'0 0.0
2015-Feb-23 07:33N 54°38' W 008°26'0 0.0
2015-Feb-23 06:33N 54°38' W 008°26'0 0.0
2015-Feb-23 05:33N 54°38' W 008°26'0 0.0
2015-Feb-23 04:33N 54°38' W 008°26'0 0.0
2015-Feb-23 03:33N 54°38' W 008°26'0 0.0
2015-Feb-23 02:33N 54°38' W 008°26'0 0.0
2015-Feb-23 01:33N 54°38' W 008°26'0 0.0
2015-Feb-23 00:33N 54°38' W 008°26'0 0.0
2015-Feb-22 23:33N 54°38' W 008°26'0 0.0
2015-Feb-22 22:33N 54°38' W 008°26'0 0.0
2015-Feb-22 21:33N 54°38' W 008°26'0 0.0
2015-Feb-22 20:33N 54°38' W 008°26'0 0.0
2015-Feb-22 19:33N 54°38' W 008°26'0 0.0
2015-Feb-22 18:33N 54°38' W 008°26'0 0.0
2015-Feb-22 17:33N 54°38' W 008°26'0 0.0
2015-Feb-22 16:33N 54°38' W 008°26'0 0.0
2015-Feb-22 15:33N 54°38' W 008°26'0 0.0
2015-Feb-22 14:33N 54°38' W 008°26'0 0.0
2015-Feb-22 13:33N 54°38' W 008°26'0 0.0
2015-Feb-22 12:33N 54°38' W 008°26'0 0.0
2015-Feb-22 11:33N 54°38' W 008°26'0 0.0
2015-Feb-22 10:33N 54°38' W 008°26'0 0.0
2015-Feb-22 09:33N 54°38' W 008°26'0 0.0
2015-Feb-22 08:33N 54°38' W 008°26'0 0.0
2015-Feb-22 07:34N 54°38' W 008°26'0 0.0
2015-Feb-22 06:33N 54°38' W 008°26'0 0.0
2015-Feb-22 05:33N 54°38' W 008°26'0 0.0
2015-Feb-22 04:33N 54°38' W 008°26'0 0.0
2015-Feb-22 03:33N 54°38' W 008°26'0 0.0
2015-Feb-22 02:33N 54°38' W 008°26'0 0.0
2015-Feb-22 01:33N 54°38' W 008°26'0 0.0
2015-Feb-22 00:33N 54°38' W 008°26'0 0.0
2015-Feb-21 23:33N 54°38' W 008°26'0 0.0
2015-Feb-21 22:33N 54°38' W 008°26'0 0.0
2015-Feb-21 21:33N 54°38' W 008°26'0 0.0
2015-Feb-21 20:33N 54°38' W 008°26'0 0.0
2015-Feb-21 19:33N 54°38' W 008°26'0 0.0
2015-Feb-21 18:33N 54°38' W 008°26'0 0.0
2015-Feb-21 17:33N 54°38' W 008°26'0 0.0
2015-Feb-21 16:33N 54°38' W 008°26'0 0.0
2015-Feb-21 15:33N 54°38' W 008°26'0 0.0
2015-Feb-21 14:33N 54°38' W 008°26'0 0.0
2015-Feb-21 13:33N 54°38' W 008°26'0 0.0
2015-Feb-21 12:33N 54°38' W 008°26'0 0.0
2015-Feb-21 11:34N 54°38' W 008°26'0 0.0
2015-Feb-21 10:33N 54°38' W 008°26'0 0.1
2015-Feb-21 09:33N 54°38' W 008°26'0 0.0
2015-Feb-21 08:33N 54°38' W 008°26'0 0.0
2015-Feb-21 07:33N 54°38' W 008°26'0 0.0
2015-Feb-21 06:33N 54°38' W 008°26'0 0.0
2015-Feb-21 05:33N 54°38' W 008°26'0 0.0
2015-Feb-21 04:33N 54°38' W 008°26'0 0.0
2015-Feb-21 03:33N 54°38' W 008°26'0 0.0
2015-Feb-21 02:33N 54°38' W 008°26'0 0.0
2015-Feb-21 01:33N 54°38' W 008°26'0 0.0
2015-Feb-21 00:33N 54°38' W 008°26'0 0.0
2015-Feb-20 23:33N 54°38' W 008°26'0 0.0
2015-Feb-20 22:33N 54°38' W 008°26'0 0.0
2015-Feb-20 21:33N 54°38' W 008°26'0 0.0
2015-Feb-20 20:33N 54°38' W 008°26'0 0.0
2015-Feb-20 19:33N 54°38' W 008°26'6 5.7
2015-Feb-20 18:33N 54°33' W 008°31'1 1.5
2015-Feb-20 17:33N 54°33' W 008°33'6 5.9
2015-Feb-20 16:33N 54°38' W 008°26'0 0.0
2015-Feb-20 15:33N 54°38' W 008°26'0 0.0
2015-Feb-20 14:33N 54°38' W 008°26'0 0.0
2015-Feb-20 13:33N 54°38' W 008°26'0 0.0
2015-Feb-20 12:33N 54°38' W 008°26'0 0.0
2015-Feb-20 11:33N 54°38' W 008°26'0 0.0
2015-Feb-20 10:33N 54°38' W 008°26'0 0.0
2015-Feb-20 09:33N 54°38' W 008°26'0 0.0
2015-Feb-20 08:33N 54°38' W 008°26'0 0.0
2015-Feb-20 07:33N 54°38' W 008°26'0 0.0
2015-Feb-20 06:33N 54°38' W 008°26'0 0.0
2015-Feb-20 05:33N 54°38' W 008°26'0 0.0
2015-Feb-20 04:33N 54°38' W 008°26'0 0.0
2015-Feb-20 03:33N 54°38' W 008°26'0 0.0
2015-Feb-20 02:33N 54°38' W 008°26'0 0.0
2015-Feb-20 01:33N 54°38' W 008°26'0 0.0
2015-Feb-20 00:33N 54°38' W 008°26'0 0.0
2015-Feb-19 23:33N 54°38' W 008°26'0 0.0
2015-Feb-19 22:33N 54°38' W 008°26'0 0.0
2015-Feb-19 21:33N 54°38' W 008°26'0 0.0
2015-Feb-19 20:33N 54°38' W 008°26'0 0.0
2015-Feb-19 19:33N 54°38' W 008°26'0 0.0
2015-Feb-19 18:33N 54°38' W 008°26'0 0.0
2015-Feb-19 17:33N 54°38' W 008°26'0 0.0
2015-Feb-19 16:33N 54°38' W 008°26'0 0.0
2015-Feb-19 15:33N 54°38' W 008°26'0 0.0
2015-Feb-19 14:33N 54°38' W 008°26'0 0.0
2015-Feb-19 13:33N 54°38' W 008°26'0 0.0
2015-Feb-19 12:33N 54°38' W 008°26'0 0.0
2015-Feb-19 11:33N 54°38' W 008°26'0 0.0
2015-Feb-19 10:33N 54°38' W 008°26'0 0.0
2015-Feb-19 09:33N 54°38' W 008°26'0 0.0
2015-Feb-19 08:33N 54°38' W 008°26'0 0.0
2015-Feb-19 07:33N 54°38' W 008°26'0 0.0
2015-Feb-19 06:33N 54°38' W 008°26'0 0.0
2015-Feb-19 05:33N 54°38' W 008°26'0 0.0
2015-Feb-19 04:33N 54°38' W 008°26'0 0.0
2015-Feb-19 03:33N 54°38' W 008°26'0 0.0
2015-Feb-19 02:33N 54°38' W 008°26'0 0.0
2015-Feb-19 01:33N 54°38' W 008°26'0 0.0
2015-Feb-19 00:33N 54°38' W 008°26'0 0.0
2015-Feb-18 23:33N 54°38' W 008°26'0 0.0
2015-Feb-18 22:33N 54°38' W 008°26'0 0.0
2015-Feb-18 21:33N 54°38' W 008°26'0 0.0
2015-Feb-18 20:33N 54°38' W 008°26'0 0.0
2015-Feb-18 19:33N 54°38' W 008°26'0 0.0
2015-Feb-18 18:33N 54°38' W 008°26'0 0.1
2015-Feb-18 17:33N 54°38' W 008°26'0 0.0
2015-Feb-18 16:33N 54°38' W 008°26'0 0.0
2015-Feb-18 15:33N 54°38' W 008°26'0 0.1
2015-Feb-18 14:33N 54°38' W 008°26'0 0.0
2015-Feb-18 13:33N 54°38' W 008°26'0 0.0
2015-Feb-18 12:33N 54°38' W 008°26'0 0.0
2015-Feb-18 11:33N 54°38' W 008°26'0 0.0
2015-Feb-18 10:33N 54°38' W 008°26'0 0.0
2015-Feb-18 09:33N 54°38' W 008°26'0 0.0
2015-Feb-18 08:33N 54°38' W 008°26'0 0.0
2015-Feb-18 07:33N 54°38' W 008°26'0 0.0
2015-Feb-18 06:33N 54°38' W 008°26'0 0.0
2015-Feb-18 05:33N 54°38' W 008°26'0 0.0
2015-Feb-18 04:33N 54°38' W 008°26'0 0.0
2015-Feb-18 03:33N 54°38' W 008°26'1 1.2
2015-Feb-18 02:33N 54°37' W 008°27'1010.3
2015-Feb-18 01:33N 54°33' W 008°44'4210.6
2015-Feb-17 21:33N 54°23' W 009°55'1211.6
2015-Feb-17 20:33N 54°17' W 010°11'1212.2
2015-Feb-17 19:33N 54°09' W 010°28'2412.2
2015-Feb-17 17:33N 53°51' W 010°56'1212.2
2015-Feb-17 16:33N 53°42' W 011°10'  
Track history (hours):
 
Tides and Currents Weather Stations Pressure Air Temp Water Temp Dewpoint Dewpoint Depression Visibility Wind Speed Wind Dir Waves Ship Positions

Gambler

Last reported at 2015-Feb-25 01:05 UTC. Time now 2015-Feb-27 11:44 UTC.
Position N 53°56' W 011°08'.

Length 70 m; draft 6 m.

Type: Fishing. MMSI: 258412000.

Date/timePositionNaut miles runAvg speedWind from/ knotsBaromVisibWave heightAir tempDewpointWater temp
2015-Feb-25 01:05N 53°56' W 011°08'710.2
2015-Feb-25 00:27N 53°60' W 010°59'1310.4
2015-Feb-24 23:11N 54°08' W 010°41'710.3
2015-Feb-24 22:33N 54°12' W 010°32'1310.0
2015-Feb-24 21:14N 54°20' W 010°14'7 9.8
2015-Feb-24 20:33N 54°23' W 010°04'10 9.9
2015-Feb-24 19:33N 54°26' W 009°48'38 9.4
2015-Feb-24 15:33N 54°33' W 008°44'9 9.4
2015-Feb-24 14:33N 54°36' W 008°29'3 2.7
2015-Feb-24 13:33N 54°38' W 008°26'0 0.0
2015-Feb-24 12:33N 54°38' W 008°26'0 0.0
2015-Feb-24 11:33N 54°38' W 008°26'0 0.0
2015-Feb-24 10:33N 54°38' W 008°26'0 0.0
2015-Feb-24 09:33N 54°38' W 008°26'0 0.0
2015-Feb-24 08:33N 54°38' W 008°26'0 0.0
2015-Feb-24 07:33N 54°38' W 008°26'0 0.0
2015-Feb-24 06:33N 54°38' W 008°26'0 0.0
2015-Feb-24 05:33N 54°38' W 008°26'0 0.0
2015-Feb-24 04:33N 54°38' W 008°26'0 0.0
2015-Feb-24 03:33N 54°38' W 008°26'0 0.0
2015-Feb-24 02:33N 54°38' W 008°26'0 0.0
2015-Feb-24 01:33N 54°38' W 008°26'0 0.0
2015-Feb-24 00:33N 54°38' W 008°26'0 0.0
2015-Feb-23 23:33N 54°38' W 008°26'0 0.0
2015-Feb-23 22:33N 54°38' W 008°26'0 0.0
2015-Feb-23 21:33N 54°38' W 008°26'0 0.0
2015-Feb-23 20:33N 54°38' W 008°26'0 0.0
2015-Feb-23 19:33N 54°38' W 008°26'0 0.0
2015-Feb-23 18:33N 54°38' W 008°26'0 0.0
2015-Feb-23 17:33N 54°38' W 008°26'0 0.0
2015-Feb-23 16:33N 54°38' W 008°26'0 0.0
2015-Feb-23 15:33N 54°38' W 008°26'0 0.0
2015-Feb-23 14:33N 54°38' W 008°26'0 0.0
2015-Feb-23 13:33N 54°38' W 008°26'0 0.0
2015-Feb-23 12:33N 54°38' W 008°26'0 0.0
2015-Feb-23 11:33N 54°38' W 008°26'0 0.0
2015-Feb-23 10:33N 54°38' W 008°26'0 0.0
2015-Feb-23 09:33N 54°38' W 008°26'0 0.0
2015-Feb-23 08:33N 54°38' W 008°26'0 0.0
2015-Feb-23 07:33N 54°38' W 008°26'0 0.0
2015-Feb-23 06:33N 54°38' W 008°26'0 0.0
2015-Feb-23 05:33N 54°38' W 008°26'0 0.0
2015-Feb-23 04:33N 54°38' W 008°26'0 0.0
2015-Feb-23 03:33N 54°38' W 008°26'0 0.0
2015-Feb-23 02:33N 54°38' W 008°26'0 0.0
2015-Feb-23 01:33N 54°38' W 008°26'0 0.0
2015-Feb-23 00:33N 54°38' W 008°26'0 0.0
2015-Feb-22 23:33N 54°38' W 008°26'0 0.0
2015-Feb-22 22:33N 54°38' W 008°26'0 0.0
2015-Feb-22 21:33N 54°38' W 008°26'0 0.0
2015-Feb-22 20:33N 54°38' W 008°26'0 0.0
2015-Feb-22 19:33N 54°38' W 008°26'0 0.0
2015-Feb-22 18:33N 54°38' W 008°26'0 0.0
2015-Feb-22 17:33N 54°38' W 008°26'0 0.0
2015-Feb-22 16:33N 54°38' W 008°26'0 0.0
2015-Feb-22 15:33N 54°38' W 008°26'0 0.0
2015-Feb-22 14:33N 54°38' W 008°26'0 0.0
2015-Feb-22 13:33N 54°38' W 008°26'0 0.0
2015-Feb-22 12:33N 54°38' W 008°26'0 0.0
2015-Feb-22 11:33N 54°38' W 008°26'0 0.0
2015-Feb-22 10:33N 54°38' W 008°26'0 0.0
2015-Feb-22 09:33N 54°38' W 008°26'0 0.0
2015-Feb-22 08:33N 54°38' W 008°26'0 0.0
2015-Feb-22 07:34N 54°38' W 008°26'0 0.0
2015-Feb-22 06:33N 54°38' W 008°26'0 0.0
2015-Feb-22 05:33N 54°38' W 008°26'0 0.0
2015-Feb-22 04:33N 54°38' W 008°26'0 0.0
2015-Feb-22 03:33N 54°38' W 008°26'0 0.0
2015-Feb-22 02:33N 54°38' W 008°26'0 0.0
2015-Feb-22 01:33N 54°38' W 008°26'0 0.0
2015-Feb-22 00:33N 54°38' W 008°26'0 0.0
2015-Feb-21 23:33N 54°38' W 008°26'0 0.0
2015-Feb-21 22:33N 54°38' W 008°26'0 0.0
2015-Feb-21 21:33N 54°38' W 008°26'0 0.0
2015-Feb-21 20:33N 54°38' W 008°26'0 0.0
2015-Feb-21 19:33N 54°38' W 008°26'0 0.0
2015-Feb-21 18:33N 54°38' W 008°26'0 0.0
2015-Feb-21 17:33N 54°38' W 008°26'0 0.0
2015-Feb-21 16:33N 54°38' W 008°26'0 0.0
2015-Feb-21 15:33N 54°38' W 008°26'0 0.0
2015-Feb-21 14:33N 54°38' W 008°26'0 0.0
2015-Feb-21 13:33N 54°38' W 008°26'0 0.0
2015-Feb-21 12:33N 54°38' W 008°26'0 0.0
2015-Feb-21 11:34N 54°38' W 008°26'0 0.0
2015-Feb-21 10:33N 54°38' W 008°26'0 0.1
2015-Feb-21 09:33N 54°38' W 008°26'0 0.0
2015-Feb-21 08:33N 54°38' W 008°26'0 0.0
2015-Feb-21 07:33N 54°38' W 008°26'0 0.0
2015-Feb-21 06:33N 54°38' W 008°26'0 0.0
2015-Feb-21 05:33N 54°38' W 008°26'0 0.0
2015-Feb-21 04:33N 54°38' W 008°26'0 0.0
2015-Feb-21 03:33N 54°38' W 008°26'0 0.0
2015-Feb-21 02:33N 54°38' W 008°26'0 0.0
2015-Feb-21 01:33N 54°38' W 008°26'0 0.0
2015-Feb-21 00:33N 54°38' W 008°26'0 0.0
2015-Feb-20 23:33N 54°38' W 008°26'0 0.0
2015-Feb-20 22:33N 54°38' W 008°26'0 0.0
2015-Feb-20 21:33N 54°38' W 008°26'0 0.0
2015-Feb-20 20:33N 54°38' W 008°26'0 0.0
2015-Feb-20 19:33N 54°38' W 008°26'6 5.7
2015-Feb-20 18:33N 54°33' W 008°31'1 1.5
2015-Feb-20 17:33N 54°33' W 008°33'6 5.9
2015-Feb-20 16:33N 54°38' W 008°26'0 0.0
2015-Feb-20 15:33N 54°38' W 008°26'0 0.0
2015-Feb-20 14:33N 54°38' W 008°26'0 0.0
2015-Feb-20 13:33N 54°38' W 008°26'0 0.0
2015-Feb-20 12:33N 54°38' W 008°26'0 0.0
2015-Feb-20 11:33N 54°38' W 008°26'0 0.0
2015-Feb-20 10:33N 54°38' W 008°26'0 0.0
2015-Feb-20 09:33N 54°38' W 008°26'0 0.0
2015-Feb-20 08:33N 54°38' W 008°26'0 0.0
2015-Feb-20 07:33N 54°38' W 008°26'0 0.0
2015-Feb-20 06:33N 54°38' W 008°26'0 0.0
2015-Feb-20 05:33N 54°38' W 008°26'0 0.0
2015-Feb-20 04:33N 54°38' W 008°26'0 0.0
2015-Feb-20 03:33N 54°38' W 008°26'0 0.0
2015-Feb-20 02:33N 54°38' W 008°26'0 0.0
2015-Feb-20 01:33N 54°38' W 008°26'0 0.0
2015-Feb-20 00:33N 54°38' W 008°26'0 0.0
2015-Feb-19 23:33N 54°38' W 008°26'0 0.0
2015-Feb-19 22:33N 54°38' W 008°26'0 0.0
2015-Feb-19 21:33N 54°38' W 008°26'0 0.0
2015-Feb-19 20:33N 54°38' W 008°26'0 0.0
2015-Feb-19 19:33N 54°38' W 008°26'0 0.0
2015-Feb-19 18:33N 54°38' W 008°26'0 0.0
2015-Feb-19 17:33N 54°38' W 008°26'0 0.0
2015-Feb-19 16:33N 54°38' W 008°26'0 0.0
2015-Feb-19 15:33N 54°38' W 008°26'0 0.0
2015-Feb-19 14:33N 54°38' W 008°26'0 0.0
2015-Feb-19 13:33N 54°38' W 008°26'0 0.0
2015-Feb-19 12:33N 54°38' W 008°26'0 0.0
2015-Feb-19 11:33N 54°38' W 008°26'0 0.0
2015-Feb-19 10:33N 54°38' W 008°26'0 0.0
2015-Feb-19 09:33N 54°38' W 008°26'0 0.0
2015-Feb-19 08:33N 54°38' W 008°26'0 0.0
2015-Feb-19 07:33N 54°38' W 008°26'0 0.0
2015-Feb-19 06:33N 54°38' W 008°26'0 0.0
2015-Feb-19 05:33N 54°38' W 008°26'0 0.0
2015-Feb-19 04:33N 54°38' W 008°26'0 0.0
2015-Feb-19 03:33N 54°38' W 008°26'0 0.0
2015-Feb-19 02:33N 54°38' W 008°26'0 0.0
2015-Feb-19 01:33N 54°38' W 008°26'0 0.0
2015-Feb-19 00:33N 54°38' W 008°26'0 0.0
2015-Feb-18 23:33N 54°38' W 008°26'0 0.0
2015-Feb-18 22:33N 54°38' W 008°26'0 0.0
2015-Feb-18 21:33N 54°38' W 008°26'0 0.0
2015-Feb-18 20:33N 54°38' W 008°26'0 0.0
2015-Feb-18 19:33N 54°38' W 008°26'0 0.0
2015-Feb-18 18:33N 54°38' W 008°26'0 0.1
2015-Feb-18 17:33N 54°38' W 008°26'0 0.0
2015-Feb-18 16:33N 54°38' W 008°26'0 0.0
2015-Feb-18 15:33N 54°38' W 008°26'0 0.1
2015-Feb-18 14:33N 54°38' W 008°26'0 0.0
2015-Feb-18 13:33N 54°38' W 008°26'0 0.0
2015-Feb-18 12:33N 54°38' W 008°26'0 0.0
2015-Feb-18 11:33N 54°38' W 008°26'0 0.0
2015-Feb-18 10:33N 54°38' W 008°26'0 0.0
2015-Feb-18 09:33N 54°38' W 008°26'0 0.0
2015-Feb-18 08:33N 54°38' W 008°26'0 0.0
2015-Feb-18 07:33N 54°38' W 008°26'0 0.0
2015-Feb-18 06:33N 54°38' W 008°26'0 0.0
2015-Feb-18 05:33N 54°38' W 008°26'0 0.0
2015-Feb-18 04:33N 54°38' W 008°26'0 0.0
2015-Feb-18 03:33N 54°38' W 008°26'1 1.2
2015-Feb-18 02:33N 54°37' W 008°27'1010.3
2015-Feb-18 01:33N 54°33' W 008°44'4210.6
2015-Feb-17 21:33N 54°23' W 009°55'1211.6
2015-Feb-17 20:33N 54°17' W 010°11'1212.2
2015-Feb-17 19:33N 54°09' W 010°28'2412.2
2015-Feb-17 17:33N 53°51' W 010°56'1212.2
2015-Feb-17 16:33N 53°42' W 011°10'  

Dump ship's entire track history